バルセロナ の空港の天気 - METARとTAF

バルセロナ・エル・プラット国際空港 ( LEBL / BCN ) - スペイン バルセロナ
飛行場実況気象(Metar)
観測時間11/19 14:30 CET (11/19 13:30 UTC)
風向・風速西 3m/s
視程10km以上
天気現象
なし
気温16℃
湿度55%
気圧1020hPa
METARLEBL 191330Z 28006KT CAVOK 16/07 Q1020 NOSIG
過去の天気等 Google飛行場航空写真 Wunderground天気予報

過去48時間のMETAR

飛行場予報(TAF)
発表時間: 11/19 12:34 CET (11/19 11:34 UTC)
予報対象時間: 19日13時 CET ~ 20日13時 CET
風向・風速南西 4m/s
視程10km以上
少しの雲 雲底高度 910m
19日13時 CET ~ 19日15時 CET に一時的に
風向・風速北北西 6m/s 瞬間風速 14m/s
19日19時 CET ~ 19日21時 CET に徐々に
風向・風速北西 4m/s
20日11時 CET ~ 20日13時 CET に徐々に
風向・風速南南西 4m/s
TAF AMD LEBL 191134Z 1912/2012 23008KT 9999 FEW030 TX19/1912Z TN07/2006Z
TEMPO 1912/1914 34011G27KT
BECMG 1918/1920 31008KT
BECMG 2010/2012 20008KT